EDT,Max TemperatureF,Mean TemperatureF,Min TemperatureF,Max Dew PointF,MeanDew PointF,Min DewpointF,Max Humidity, Mean Humidity, Min Humidity, Max Sea Level PressureIn, Mean Sea Level PressureIn, Min Sea Level PressureIn, Max VisibilityMiles, Mean VisibilityMiles, Min VisibilityMiles, Max Wind SpeedMPH, Mean Wind SpeedMPH, Max Gust SpeedMPH,PrecipitationIn, CloudCover, Events, WindDirDegrees
2013-3-1,,,,,,,,,,,,,,,,,,,,,,
2013-3-2,,,,,,,,,,,,,,,,,,,,,,
2013-3-3,33,,33,25,25,25,70,70,70,29.68,29.68,29.68,10,10,10,12,12,,0.00,8,,340
2013-3-4,,,,,,,,,,,,,,,,,,,,,,
2013-3-5,44,40,39,28,28,27,61,58,53,29.99,29.97,29.96,10,10,10,14,12,20,0.00,0,,313
2013-3-6,41,41,41,36,36,36,81,81,81,29.96,29.91,29.87,10,9,7,23,19,37,0.00,8,,62
2013-3-7,41,39,33,32,31,30,93,79,70,29.90,29.89,29.89,10,8,4,31,26,41,0.00,8,Rain,13
2013-3-8,35,32,32,36,33,32,100,97,93,30.04,29.99,29.94,10,3,0,14,12,,0.00,8,Snow,16
2013-3-9,51,46,41,34,25,19,66,45,28,30.25,30.21,30.19,10,9,6,14,11,,0.00,0,,9
2013-3-10,41,38,35,34,34,34,93,83,76,30.40,30.38,30.36,10,10,7,9,4,,0.00,3,,135
2013-3-11,48,44,41,45,42,39,93,90,87,30.30,30.26,30.22,10,10,10,10,4,,0.00,7,,148
2013-3-12,50,49,48,48,47,46,100,91,87,29.99,29.92,29.84,10,7,4,14,12,20,0.00,8,Rain,150
2013-3-13,48,44,42,30,30,28,61,55,50,29.85,29.82,29.79,10,10,10,17,14,17,0.00,0,,307
2013-3-14,33,32,32,18,16,14,55,50,44,29.87,29.85,29.82,10,10,10,21,18,31,0.00,4,,312
2013-3-15,39,36,32,19,17,12,52,47,33,29.94,29.88,29.81,10,10,10,20,15,,0.00,4,,274
2013-3-16,,,,,,,,,,,,,,,,,,,,,,
2013-3-17,37,34,32,18,13,10,52,41,33,30.15,30.11,30.09,10,10,10,14,12,20,0.00,2,,320
2013-3-18,,,,,,,,,,,,,,,,,,,,,,
2013-3-19,,,,,,,,,,,,,,,,,,,,,,
2013-3-20,37,36,35,23,21,19,56,53,48,29.85,29.85,29.84,10,10,10,20,16,26,0.00,1,,300
2013-3-21,37,36,35,27,26,25,70,68,60,29.71,29.65,29.62,10,10,10,14,10,,0.00,7,Snow,358
2013-3-22,41,39,37,23,21,19,56,49,42,29.75,29.75,29.75,10,10,10,20,17,,0.00,4,,290
2013-3-23,44,40,37,25,24,21,60,49,39,29.82,29.77,29.73,10,10,10,23,18,32,0.00,1,,301
2013-3-24,44,40,37,25,24,23,56,51,46,29.90,29.83,29.75,10,10,10,20,13,,0.00,0,,320
2013-3-25,,,,,,,,,,,,,,,,,,,,,,
2013-3-26,,,,,,,,,,,,,,,,,,,,,,
2013-3-27,,,,,,,,,,,,,,,,,,,,,,
2013-3-28,44,41,41,36,35,34,76,74,71,29.96,29.96,29.96,10,10,10,16,12,,0.00,3,,320
2013-3-29,55,50,44,34,32,28,66,50,36,30.11,30.05,30.02,10,10,10,15,12,,0.00,1,,280
2013-3-30,,,,,,,,,,,,,,,,,,,,,,
2013-3-31,,,,,,,,,,,,,,,,,,,,,,